Latest Weather Observations for Strahan

IDT60801

Issued at 4:01 am EST Saturday 20 August 2022 (issued every 10 minutes, with the page automatically refreshed every 10 minutes)

About weather observations | Map of weather stations | Latest weather observations for TAS | Other Formats
Station Details ID: 097072 Name: STRAHAN AERODROME Lat: -42.16 Lon: 145.29 Height: 21.0 m
Data from the previous 72 hours. | See also: Recent months at Strahan
Date/Time
EST
Temp
°C
App
Temp
°C
Dew
Point
°C
Rel
Hum
%
Delta-T
°C
Wind Press
QNH
hPa
Press
MSL
hPa
Rain since
9am
mm
Dir  Spd
km/h
Gust
km/h
Spd
kts
Gust
kts
20/04:00am 7.1 2.4 5.1 87 0.9 SSE 19 28 10 15 1012.1 1012.2 19.4
20/03:30am 7.0 2.8 5.6 91 0.6 SSE 17 24 9 13 1011.5 1011.6 19.4
20/03:00am 7.0 1.1 5.8 92 0.5 S 26 39 14 21 1011.1 1011.2 19.4
20/02:30am 7.4 2.9 5.9 90 0.7 SSE 19 30 10 16 1010.4 1010.5 18.2
20/02:00am 7.7 2.3 6.5 92 0.6 S 24 32 13 17 1009.9 1010.0 18.2
20/01:30am 7.9 3.6 7.1 95 0.4 SSE 19 26 10 14 1009.5 1009.6 18.0
20/01:28am 7.9 3.6 7.1 95 0.4 SSE 19 26 10 14 1009.4 1009.5 18.0
20/01:15am 8.0 3.6 7.2 95 0.4 S 20 30 11 16 1009.1 1009.2 18.0
20/01:00am 8.0 4.9 7.2 95 0.4 S 13 17 7 9 1008.8 1008.9 17.8
20/12:30am 8.1 3.3 7.3 95 0.4 S 22 33 12 18 1008.2 1008.3 17.8
20/12:00am 8.1 2.9 7.2 94 0.4 S 24 37 13 20 1007.6 1007.7 17.8
 
Date/Time
EST
Temp
°C
App
Temp
°C
Dew
Point
°C
Rel
Hum
%
Delta-T
°C
Wind Press
QNH
hPa
Press
MSL
hPa
Rain since
9am
mm
Dir  Spd
km/h
Gust
km/h
Spd
kts
Gust
kts
19/11:30pm 8.6 4.9 7.8 95 0.4 SSW 17 30 9 16 1007.1 1007.2 17.6
19/11:29pm 8.6 4.9 7.8 95 0.4 SSW 17 24 9 13 1007.1 1007.2 17.6
19/11:15pm 8.8 4.2 8.0 95 0.4 SSW 22 30 12 16 1006.7 1006.8 17.4
19/11:00pm 9.0 4.8 8.4 96 0.3 SSW 20 33 11 18 1006.6 1006.7 17.0
19/10:58pm 9.1 5.2 8.5 96 0.3 SSW 19 33 10 18 1006.6 1006.7 17.0
19/10:39pm 9.3 6.1 8.4 94 0.4 SW 15 20 8 11 1006.3 1006.4 16.8
19/10:36pm 9.4 6.2 8.5 94 0.4 SW 15 20 8 11 1006.3 1006.4 16.8
19/10:30pm 9.3 5.3 8.4 94 0.4 SW 19 26 10 14 1006.2 1006.3 16.8
19/10:26pm 9.3 5.3 8.4 94 0.4 SW 19 28 10 15 1006.2 1006.3 16.8
19/10:00pm 10.1 5.8 9.5 96 0.3 WSW 22 30 12 16 1005.8 1005.9 16.6
19/09:30pm 11.0 6.6 10.4 96 0.3 WNW 24 35 13 19 1005.5 1005.6 15.4
19/09:03pm 11.1 5.5 10.2 94 0.5 NW 30 39 16 21 1005.5 1005.6 11.2
19/09:00pm 11.0 5.0 10.1 94 0.5 NW 32 39 17 21 1005.5 1005.6 11.2
19/08:39pm 10.4 4.6 9.3 93 0.5 NW 30 43 16 23 1005.4 1005.5 10.6
19/08:30pm 10.9 4.9 10.1 95 0.4 NW 32 43 17 23 1005.2 1005.3 10.6
19/08:01pm 10.6 3.6 9.8 95 0.4 NW 37 56 20 30 1005.1 1005.2 9.0
19/08:00pm 10.6 3.2 9.8 95 0.4 NW 39 56 21 30 1005.1 1005.2 8.8
19/07:51pm 11.1 5.2 10.5 96 0.3 NNW 32 50 17 27 1005.1 1005.2 8.4
19/07:30pm 10.8 3.8 10.0 95 0.4 NNW 37 52 20 28 1004.7 1004.8 8.2
19/07:21pm 10.6 4.3 9.8 95 0.4 NNW 33 52 18 28 1005.1 1005.2 7.6
19/07:16pm 10.3 4.5 9.5 95 0.4 NNW 30 44 16 24 1005.1 1005.2 7.0
19/07:15pm 10.3 4.5 9.5 95 0.4 NNW 30 44 16 24 1005.2 1005.3 6.8
19/07:12pm 10.2 4.4 9.4 95 0.4 N 30 44 16 24 1005.3 1005.4 6.2
19/07:06pm 10.1 4.6 9.2 94 0.4 N 28 44 15 24 1005.3 1005.4 5.6
19/07:00pm 10.1 4.6 9.2 94 0.4 N 28 46 15 25 1005.2 1005.3 5.6
19/06:59pm 10.1 4.6 9.2 94 0.4 N 28 46 15 25 1005.2 1005.3 5.6
19/06:57pm 10.1 5.0 9.2 94 0.4 N 26 46 14 25 1005.2 1005.3 5.6
19/06:55pm 10.0 5.7 9.2 95 0.4 N 22 41 12 22 1005.1 1005.2 5.4
19/06:45pm 10.1 5.4 9.3 95 0.4 N 24 33 13 18 1005.4 1005.5 4.4
19/06:44pm 10.1 5.4 9.3 95 0.4 N 24 33 13 18 1005.4 1005.5 4.4
19/06:30pm 10.1 4.9 9.0 93 0.5 N 26 35 14 19 1005.5 1005.6 4.0
19/06:00pm 10.2 4.2 8.8 91 0.7 N 30 44 16 24 1005.4 1005.5 3.2
19/05:30pm 10.8 6.6 8.2 84 1.3 N 20 32 11 17 1005.4 1005.5 2.4
19/05:00pm 11.6 5.8 8.1 79 1.7 NNW 28 43 15 23 1005.5 1005.6 2.4
19/04:30pm 11.5 5.8 8.5 82 1.5 NNW 28 46 15 25 1005.7 1005.8 2.4
19/04:29pm 11.5 5.8 8.4 81 1.5 NNW 28 46 15 25 1005.8 1005.9 2.4
19/04:00pm 11.8 6.0 8.1 78 1.8 NNW 28 39 15 21 1005.9 1006.0 2.4
19/03:30pm 12.1 6.8 8.6 79 1.7 NW 26 33 14 18 1006.1 1006.2 2.4
19/03:00pm 11.8 6.0 8.1 78 1.8 NW 28 39 15 21 1006.4 1006.5 2.4
19/02:30pm 11.8 6.5 8.6 81 1.6 NW 26 33 14 18 1006.5 1006.6 2.4
19/02:00pm 11.6 6.6 8.1 79 1.7 NW 24 33 13 18 1006.7 1006.8 2.4
19/01:30pm 11.2 6.1 9.3 88 1.0 NW 26 35 14 19 1006.8 1006.9 2.4
19/01:00pm 11.1 5.3 8.1 82 1.5 NW 28 39 15 21 1006.8 1006.9 2.4
19/12:49pm 10.8 5.4 8.0 83 1.4 NW 26 39 14 21 1006.8 1006.9 2.4
19/12:39pm 10.7 5.3 9.5 92 0.6 NW 28 46 15 25 1006.9 1007.0 2.4
19/12:31pm 10.0 3.9 8.1 88 0.9 NW 30 46 16 25 1006.9 1007.0 2.2
19/12:30pm 9.8 3.9 7.7 87 1.0 NW 28 43 15 23 1006.9 1007.0 2.0
19/12:00pm 11.8 5.7 8.1 78 1.8 NW 30 41 16 22 1007.1 1007.2 1.6
19/11:30am 11.1 3.9 7.8 80 1.6 NW 35 52 19 28 1007.5 1007.6 1.6
19/11:23am 10.9 4.8 6.6 75 2.0 NW 28 52 15 28 1007.4 1007.5 1.6
19/11:00am 10.9 4.8 8.1 83 1.4 NW 30 39 16 21 1007.3 1007.4 1.6
19/10:30am 10.3 4.2 8.1 86 1.1 NNW 30 41 16 22 1007.3 1007.4 1.4
19/10:11am 9.9 3.9 7.2 83 1.3 NW 28 50 15 27 1007.2 1007.3 1.4
19/10:07am 9.9 4.8 7.5 85 1.1 NW 24 33 13 18 1007.1 1007.2 1.4
19/10:00am 9.5 4.1 7.9 90 0.8 NW 26 35 14 19 1007.2 1007.3 1.4
19/09:57am 9.4 3.6 8.0 91 0.7 NW 28 46 15 25 1007.3 1007.4 1.4
19/09:48am 8.8 2.4 6.8 87 0.9 NW 30 46 16 25 1007.6 1007.7 1.4
19/09:34am 9.4 2.9 6.7 83 1.3 NW 30 48 16 26 1007.2 1007.3 0.4
19/09:30am 9.7 4.5 7.1 84 1.2 NNW 24 35 13 19 1007.1 1007.2 0.2
19/09:00am 8.6 4.1 6.1 84 1.1 NW 19 26 10 14 1007.4 1007.5 25.0
19/08:42am 8.5 3.8 6.1 85 1.1 NW 20 28 11 15 1007.5 1007.6 25.0
19/08:31am 8.0 0.7 5.5 84 1.1 WNW 33 52 18 28 1007.7 1007.8 25.0
19/08:30am 8.0 0.2 4.9 81 1.4 WNW 35 52 19 28 1007.6 1007.7 25.0
19/08:17am 9.6 3.0 4.4 70 2.3 NW 28 56 15 30 1007.2 1007.3 24.8
19/08:00am 9.6 4.1 6.0 78 1.7 NW 24 35 13 19 1007.1 1007.2 24.8
19/07:30am 8.7 3.2 6.0 83 1.2 NW 24 33 13 18 1006.9 1007.0 24.8
19/07:00am 8.7 3.1 5.4 80 1.5 WNW 24 33 13 18 1006.7 1006.8 24.8
19/06:30am 7.8 3.1 5.3 84 1.1 W 19 30 10 16 1006.6 1006.7 24.8
19/06:00am 8.3 3.8 4.1 75 1.8 W 17 24 9 13 1006.4 1006.5 24.0
19/05:30am 8.1 2.7 4.7 79 1.5 WSW 22 43 12 23 1006.2 1006.3 24.0
19/05:00am 8.5 3.4 3.9 73 2.0 WNW 20 28 11 15 1006.1 1006.2 23.6
19/04:30am 8.3 2.2 3.0 69 2.2 W 24 35 13 19 1005.8 1005.9 23.6
19/04:17am 7.9 1.2 3.9 76 1.7 W 28 48 15 26 1005.7 1005.8 23.6
19/04:00am 7.9 2.0 3.8 75 1.8 W 24 35 13 19 1005.3 1005.4 23.4
19/03:38am 8.6 2.0 4.0 73 2.0 W 28 54 15 29 1005.2 1005.3 23.0
19/03:30am 9.5 3.6 4.1 69 2.4 WNW 24 35 13 19 1005.0 1005.1 22.8
19/03:00am 9.3 2.7 4.1 70 2.3 W 28 37 15 20 1004.9 1005.0 22.8
19/02:30am 9.7 3.4 5.5 75 1.9 WNW 28 46 15 25 1004.6 1004.7 22.8
19/02:29am 9.7 3.4 5.5 75 1.9 WNW 28 46 15 25 1004.6 1004.7 22.8
19/02:00am 9.5 3.5 5.3 75 1.9 WNW 26 44 14 24 1004.2 1004.3 22.8
19/01:30am 8.5 3.9 6.5 87 0.9 WNW 20 37 11 20 1004.0 1004.1 22.8
19/01:12am 8.8 3.9 6.9 88 0.9 WNW 22 37 12 20 1003.8 1003.9 22.6
19/01:00am 8.5 3.1 6.3 86 1.0 WNW 24 37 13 20 1003.8 1003.9 22.0
19/12:59am 8.6 2.8 6.4 86 1.0 WNW 26 37 14 20 1003.8 1003.9 22.0
19/12:30am 9.7 4.2 6.1 78 1.7 WNW 24 33 13 18 1003.8 1003.9 21.6
19/12:00am 9.3 4.5 5.7 78 1.6 WNW 20 35 11 19 1003.5 1003.6 21.6
 
Date/Time
EST
Temp
°C
App
Temp
°C
Dew
Point
°C
Rel
Hum
%
Delta-T
°C
Wind Press
QNH
hPa
Press
MSL
hPa
Rain since
9am
mm
Dir  Spd
km/h
Gust
km/h
Spd
kts
Gust
kts
18/11:30pm 8.8 4.1 5.9 82 1.3 WNW 20 28 11 15 1003.4 1003.5 21.6
18/11:00pm 8.3 0.4 6.3 87 0.9 W 37 59 20 32 1003.5 1003.6 21.6
18/10:57pm 8.0 -0.4 5.6 85 1.1 W 39 59 21 32 1003.5 1003.6 21.6
18/10:55pm 8.0 -0.2 4.9 81 1.4 WNW 37 59 20 32 1003.5 1003.6 21.6
18/10:50pm 10.0 3.8 6.0 76 1.8 WNW 28 46 15 25 1003.3 1003.4 21.4
18/10:30pm 10.0 4.1 5.8 75 1.9 WNW 26 39 14 21 1003.3 1003.4 21.4
18/10:00pm 9.5 4.2 6.9 84 1.2 WNW 24 35 13 19 1003.0 1003.1 21.4
18/09:30pm 8.8 2.7 6.8 87 0.9 WNW 28 59 15 32 1003.1 1003.2 21.4
18/09:24pm 9.1 3.0 6.4 83 1.2 NW 28 59 15 32 1003.2 1003.3 21.4
18/09:23pm 9.3 3.5 6.2 81 1.4 NW 26 59 14 32 1003.1 1003.2 20.8
18/09:00pm 10.1 4.0 6.6 79 1.6 NW 28 39 15 21 1002.5 1002.6 20.4
18/08:30pm 9.5 3.8 6.6 82 1.4 NW 26 39 14 21 1002.1 1002.1 20.4
18/08:00pm 9.7 5.4 7.8 88 0.9 NW 20 33 11 18 1001.9 1001.9 20.4
18/07:30pm 8.9 2.2 7.2 89 0.8 NW 32 43 17 23 1001.9 1001.9 20.4
18/07:28pm 8.8 1.9 7.1 89 0.8 NW 33 43 18 23 1001.9 1001.9 20.4
18/07:18pm 8.3 1.4 6.6 89 0.8 NW 32 46 17 25 1001.8 1001.8 20.4
18/07:00pm 9.2 4.1 6.1 81 1.4 WNW 22 32 12 17 1001.5 1001.5 18.6
18/06:30pm 9.9 4.6 6.6 80 1.5 NW 24 30 13 16 1000.9 1000.9 17.6
18/06:00pm 10.2 5.7 6.9 80 1.6 WNW 20 30 11 16 1000.8 1000.8 17.6
18/05:30pm 9.7 4.9 7.3 85 1.1 WNW 22 33 12 18 1000.4 1000.4 17.6
18/05:02pm 9.6 4.8 7.4 86 1.0 WNW 22 33 12 18 1000.0 1000.0 17.6
18/05:00pm 9.4 4.6 7.3 87 1.0 WNW 22 33 12 18 1000.0 1000.0 17.6
18/04:48pm 8.9 2.5 6.9 87 0.9 WNW 30 48 16 26 1000.0 1000.0 17.6
18/04:30pm 10.0 4.2 7.8 86 1.1 WNW 28 39 15 21 999.7 999.7 16.4
18/04:24pm 9.9 3.6 7.5 85 1.1 WNW 30 44 16 24 999.6 999.6 16.2
18/04:00pm 10.8 4.7 6.4 74 2.1 WNW 28 39 15 21 999.4 999.4 16.2
18/03:30pm 10.6 4.7 7.3 80 1.6 WNW 28 39 15 21 998.8 998.8 16.2
18/03:22pm 10.7 3.9 7.0 78 1.8 WNW 32 50 17 27 998.5 998.5 16.2
18/03:00pm 11.2 3.2 7.5 78 1.8 WNW 39 54 21 29 998.1 998.1 16.2
18/02:32pm 11.6 3.2 9.0 84 1.3 WNW 43 65 23 35 997.1 997.1 16.2
18/02:30pm 11.4 2.4 8.8 84 1.3 WNW 46 67 25 36 997.1 997.1 16.2
18/02:28pm 11.4 2.0 8.8 84 1.3 WNW 48 67 26 36 997.0 997.0 16.2
18/02:00pm 11.8 2.6 9.4 85 1.2 NW 48 74 26 40 995.6 995.6 16.2
18/01:58pm 11.8 3.0 9.7 87 1.1 NW 46 74 25 40 995.5 995.5 16.2
18/01:30pm 11.4 2.7 9.8 90 0.8 NNW 46 74 25 40 994.9 994.9 16.0
18/01:22pm 11.5 2.4 9.9 90 0.8 NNW 48 67 26 36 994.9 994.9 15.8
18/01:18pm 11.7 2.2 9.9 89 0.9 NNW 50 67 27 36 995.0 995.0 15.6
18/01:00pm 11.7 0.5 9.9 89 0.9 NNW 59 83 32 45 995.0 995.0 15.4
18/12:55pm 11.5 1.1 9.4 87 1.1 NNW 54 83 29 45 994.6 994.6 15.4
18/12:38pm 11.1 2.7 9.5 90 0.8 NNW 44 63 24 34 994.8 994.8 15.2
18/12:37pm 11.1 2.3 9.5 90 0.8 NNW 46 63 25 34 994.8 994.8 15.2
18/12:30pm 10.7 2.8 9.5 92 0.6 NNW 41 63 22 34 994.8 994.8 15.2
18/12:04pm 11.2 1.0 10.1 93 0.6 NW 54 82 29 44 995.1 995.1 14.8
18/12:00pm 11.3 1.1 10.0 92 0.7 NW 54 82 29 44 995.0 995.0 14.2
18/11:51am 12.6 4.8 11.3 92 0.7 NNW 43 74 23 40 995.1 995.1 13.6
18/11:40am 12.7 4.8 11.6 93 0.6 NNW 44 69 24 37 995.1 995.1 13.4
18/11:30am 12.7 4.9 11.3 91 0.7 NNW 43 61 23 33 995.3 995.3 13.4
18/11:27am 12.8 5.1 11.4 91 0.7 NNW 43 61 23 33 995.3 995.3 13.4
18/11:24am 12.9 5.2 11.5 91 0.7 NNW 43 56 23 30 995.4 995.4 13.4
18/11:00am 11.2 1.9 10.4 95 0.4 NNW 50 76 27 41 995.6 995.6 11.0
18/10:56am 10.9 1.8 9.8 93 0.6 NNW 48 76 26 41 995.6 995.6 8.2
18/10:30am 11.8 6.0 10.9 94 0.5 NNW 32 57 17 31 995.8 995.8 3.2
18/10:14am 12.0 5.6 10.7 92 0.7 NNW 35 54 19 29 995.7 995.7 1.2
18/10:00am 12.6 4.9 10.3 86 1.2 NNW 41 63 22 34 995.9 995.9 0.2
18/09:30am 12.3 4.2 10.2 87 1.1 N 43 63 23 34 996.2 996.2 0.0
18/09:18am 12.2 5.7 10.3 88 1.0 N 35 56 19 30 996.5 996.5 0.0
18/09:02am 11.8 5.7 10.4 91 0.7 N 33 54 18 29 996.8 996.8 0.0
18/09:00am 11.8 5.7 10.5 92 0.7 N 33 44 18 24 996.8 996.8 13.6
18/08:58am 11.7 5.8 10.6 93 0.6 N 32 44 17 24 996.8 996.8 13.6
18/08:30am 11.7 6.5 10.3 91 0.7 N 28 39 15 21 997.2 997.2 13.4
18/08:00am 11.5 7.1 10.4 93 0.6 N 24 32 13 17 997.5 997.5 13.4
18/07:30am 11.6 6.4 10.2 91 0.7 N 28 39 15 21 997.9 997.9 13.2
18/07:00am 11.4 6.5 10.1 92 0.7 N 26 43 14 23 998.3 998.3 13.2
18/06:48am 11.4 6.9 10.1 92 0.7 N 24 37 13 20 998.6 998.6 13.2
18/06:30am 11.4 5.5 10.5 94 0.5 N 32 48 17 26 999.1 999.1 13.0
18/06:29am 11.4 5.5 10.5 94 0.5 N 32 48 17 26 999.1 999.1 13.0
18/06:21am 11.3 5.8 10.5 95 0.4 N 30 48 16 26 999.1 999.1 13.0
18/06:08am 11.4 5.3 10.3 93 0.6 N 33 43 18 23 999.2 999.2 12.6
18/06:05am 11.4 5.3 10.5 94 0.5 NNW 33 48 18 26 999.2 999.2 12.6
18/06:00am 11.3 4.5 10.5 95 0.4 NNW 37 57 20 31 999.3 999.3 12.6
18/05:34am 11.5 5.1 10.7 95 0.4 NNW 35 54 19 29 999.8 999.8 12.0
18/05:30am 11.5 5.5 10.7 95 0.4 N 33 48 18 26 999.9 999.9 12.0
18/05:26am 11.4 5.3 10.5 94 0.5 N 33 50 18 27 1000.0 1000.0 11.8
18/05:11am 11.4 5.5 10.5 94 0.5 N 32 41 17 22 1000.0 1000.0 11.4
18/05:10am 11.4 5.5 10.5 94 0.5 N 32 41 17 22 1000.0 1000.0 11.4
18/05:00am 11.4 5.3 10.6 95 0.4 N 33 46 18 25 1000.2 1000.2 11.2
18/04:47am 11.5 5.4 10.6 94 0.5 N 33 48 18 26 1000.3 1000.3 11.0
18/04:40am 11.4 5.5 10.5 94 0.5 N 32 46 17 25 1000.4 1000.4 10.8
18/04:37am 11.5 5.6 10.4 93 0.6 N 32 46 17 25 1000.4 1000.4 10.8
18/04:30am 11.4 5.8 10.3 93 0.6 N 30 41 16 22 1000.3 1000.3 10.6
18/04:13am 11.1 7.1 10.3 95 0.4 N 22 30 12 16 1000.2 1000.2 10.4
18/04:00am 11.1 7.5 10.5 96 0.3 N 20 30 11 16 1000.9 1000.9 10.4
18/03:57am 11.1 7.1 10.3 95 0.4 N 22 30 12 16 1000.9 1000.9 10.4
18/03:41am 11.1 7.1 10.3 95 0.4 N 22 30 12 16 1000.9 1000.9 10.2
18/03:30am 11.1 7.4 10.2 94 0.5 N 20 28 11 15 1000.8 1000.8 10.0
18/03:00am 11.3 6.8 10.0 92 0.7 N 24 39 13 21 1001.1 1001.1 9.4
18/02:30am 11.0 7.4 9.8 92 0.6 N 19 28 10 15 1001.9 1001.9 9.0
18/02:00am 11.2 5.8 9.6 90 0.8 N 28 43 15 23 1001.5 1001.5 9.0
18/01:32am 11.1 5.0 9.7 91 0.7 N 32 50 17 27 1002.6 1002.7 8.6
18/01:30am 11.1 5.0 9.7 91 0.7 N 32 44 17 24 1002.6 1002.7 8.6
18/01:18am 11.0 5.2 9.6 91 0.7 N 30 48 16 26 1002.8 1002.9 8.4
18/01:00am 10.9 5.9 9.7 92 0.6 N 26 39 14 21 1003.2 1003.3 8.0
18/12:30am 11.0 4.3 9.6 91 0.7 N 35 52 19 28 1003.9 1004.0 7.4
18/12:00am 10.8 4.0 9.4 91 0.7 N 35 54 19 29 1004.3 1004.4 6.6
 
Date/Time
EST
Temp
°C
App
Temp
°C
Dew
Point
°C
Rel
Hum
%
Delta-T
°C
Wind Press
QNH
hPa
Press
MSL
hPa
Rain since
9am
mm
Dir  Spd
km/h
Gust
km/h
Spd
kts
Gust
kts
17/11:30pm 10.8 4.4 9.2 90 0.8 N 33 52 18 28 1004.7 1004.8 5.6
17/11:18pm 10.7 4.4 9.1 90 0.8 N 32 50 17 27 1004.8 1004.9 5.2
17/11:00pm 10.7 4.8 9.1 90 0.8 N 30 43 16 23 1005.0 1005.1 4.6
17/10:35pm 11.0 4.5 8.9 87 1.0 N 33 54 18 29 1005.2 1005.3 4.0
17/10:30pm 10.8 4.5 9.1 89 0.8 N 32 48 17 26 1005.3 1005.4 3.8
17/10:26pm 10.9 4.9 8.8 87 1.0 N 30 48 16 26 1005.3 1005.4 3.6
17/10:00pm 10.8 5.2 8.7 87 1.0 N 28 39 15 21 1005.9 1006.0 3.4
17/09:30pm 10.7 5.4 8.6 87 1.0 N 26 39 14 21 1006.1 1006.2 2.6
17/09:00pm 10.7 5.1 8.8 88 0.9 N 28 44 15 24 1006.6 1006.7 1.8
17/08:30pm 10.9 5.3 8.8 87 1.0 N 28 44 15 24 1006.7 1006.8 1.6
17/08:00pm 10.5 4.9 8.8 89 0.8 N 28 41 15 22 1007.0 1007.1 1.6
17/07:30pm 10.8 5.1 8.4 85 1.2 N 28 43 15 23 1006.9 1007.0 1.0
17/07:00pm 10.6 6.4 8.4 86 1.1 N 20 32 11 17 1007.1 1007.2 0.8
17/06:30pm 10.9 5.8 7.8 81 1.5 N 24 35 13 19 1006.9 1007.0 0.4
17/06:00pm 10.9 6.8 7.8 81 1.5 N 19 28 10 15 1007.7 1007.8 0.2
17/05:30pm 11.5 6.7 7.2 75 2.1 N 22 33 12 18 1008.0 1008.1 0.0
17/05:00pm 12.6 5.6 6.2 65 3.0 N 32 48 17 26 1008.3 1008.4 0.0
17/04:32pm 12.9 5.6 5.6 61 3.4 N 33 54 18 29 1008.5 1008.6 0.0
17/04:30pm 12.9 5.7 5.8 62 3.3 N 33 50 18 27 1008.5 1008.6 0.0
17/04:16pm 13.4 7.1 5.6 59 3.7 N 28 46 15 25 1008.4 1008.5 0.0
17/04:00pm 13.7 8.2 6.1 60 3.6 N 24 37 13 20 1008.3 1008.4 0.0
17/03:50pm 13.9 7.6 5.8 58 3.8 N 28 46 15 25 1008.3 1008.4 0.0
17/03:30pm 14.1 7.4 5.5 56 4.1 N 30 44 16 24 1008.5 1008.6 0.0
17/03:00pm 14.4 9.4 6.5 59 3.8 N 22 32 12 17 1008.8 1008.9 0.0
17/02:30pm 15.0 10.6 6.6 57 4.1 N 19 33 10 18 1009.0 1009.1 0.0
17/02:00pm 13.8 10.3 8.6 71 2.6 NNW 17 22 9 12 1009.5 1009.6 0.0
17/01:30pm 14.9 10.7 8.4 65 3.3 NNW 20 30 11 16 1010.1 1010.2 0.0
17/01:00pm 13.4 10.7 8.9 74 2.3 N 13 17 7 9 1010.6 1010.7 0.0
17/12:30pm 12.8 7.5 8.3 74 2.2 NNW 26 32 14 17 1011.9 1012.0 0.0
17/12:00pm 13.2 9.7 8.7 74 2.3 NNW 17 28 9 15 1012.5 1012.6 0.0
17/11:30am 12.1 9.3 8.6 79 1.7 NNE 13 17 7 9 1013.3 1013.4 0.0
17/11:00am 11.7 8.8 8.0 78 1.8 N 13 19 7 10 1014.2 1014.3 0.0
17/10:30am 10.6 6.3 7.8 83 1.4 N 20 26 11 14 1014.9 1015.0 0.0
17/10:00am 9.8 6.4 7.7 87 1.0 N 15 20 8 11 1015.4 1015.5 0.0
17/09:30am 9.1 4.7 7.4 89 0.8 N 20 28 11 15 1015.3 1015.4 0.0
17/09:00am 7.3 4.1 6.7 96 0.3 NNE 13 17 7 9 1015.7 1015.7 0.6
17/08:30am 7.0 4.1 6.6 97 0.2 NNE 11 17 6 9 1015.5 1015.6 0.6
17/08:04am 6.8 3.5 6.4 97 0.2 NNE 13 15 7 8 1015.8 1015.8 0.6
17/08:00am 6.7 3.8 6.3 97 0.2 NNE 11 15 6 8 1015.7 1015.7 0.6
17/07:30am 6.7 3.4 6.4 98 0.1 NNE 13 15 7 8 1015.8 1015.8 0.6
17/07:00am 6.6 3.7 6.3 98 0.1 NNE 11 15 6 8 1015.8 1015.8 0.6
17/06:59am 6.6 3.7 6.3 98 0.1 NNE 11 15 6 8 1015.8 1015.8 0.6
17/06:44am 6.6 4.0 6.3 98 0.1 NNE 9 13 5 7 1015.9 1015.9 0.6
17/06:36am 6.6 3.7 6.3 98 0.1 NNE 11 15 6 8 1016.0 1016.0 0.6
17/06:30am 6.7 3.8 6.4 98 0.1 NNE 11 15 6 8 1016.1 1016.1 0.6
17/06:00am 6.7 4.2 6.4 98 0.1 NNE 9 15 5 8 1015.8 1015.8 0.6
17/05:30am 6.3 3.7 5.9 97 0.2 NNE 9 15 5 8 1016.0 1016.0 0.4
17/05:20am 6.3 3.3 5.9 97 0.2 NNE 11 15 6 8 1016.0 1016.0 0.4
17/05:00am 6.2 2.8 5.9 98 0.1 NNE 13 15 7 8 1015.8 1015.8 0.4
17/04:30am 5.7 3.5 5.4 98 0.1 NE 6 9 3 5 1015.9 1015.9 0.4
17/04:11am 5.4 2.9 5.0 97 0.2 NE 7 7 4 4 1015.5 1015.6 0.4

Other formats

Comma delimited format used in spreadsheet applications
http://www.bom.gov.au/fwo/IDT60801/IDT60801.94956.axf

JavaScript Object Notation format (JSON) in row-major order
http://www.bom.gov.au/fwo/IDT60801/IDT60801.94956.json

Data quality

Most of these data are generated automatically and are frequently updated. Quality checks on data are not normally performed. It is possible for incorrect values to appear. Refer to information at About Latest Weather Observations and please check the disclaimer before using these data.